Time;durP1;ratioP1;P1;durP2;ratioP2;P2;SDS_P1;SDS_P2;PMS_P1;PMS_P2;Temp;Humidity;BMP_temperature;BMP_pressure;BME280_temperature;BME280_humidity;BME280_pressure;Samples;Min_cycle;Max_cycle;Signal;HPM_P1;HPM_P2
2021/07/19 00:00:14;;;;;;;25.35;12.25;;;;;;;26.42;62.31;98923.97;5030541;28;20032;-74
2021/07/19 00:02:41;;;;;;;19.27;12.15;;;;;;;26.35;62.85;98918.88;5040891;28;20111;-74
2021/07/19 00:05:09;;;;;;;22.83;12.23;;;;;;;26.36;62.55;98925.91;5040442;28;20044;-74
2021/07/19 00:07:34;;;;;;;18.65;12.80;;;;;;;26.32;63.04;98930.25;5046791;28;20052;-74
2021/07/19 00:10:02;;;;;;;20.15;12.43;;;;;;;26.19;63.30;98937.16;5057451;28;20057;-74
2021/07/19 00:12:27;;;;;;;17.33;12.25;;;;;;;26.16;64.98;98924.16;5057314;28;20090;-74
2021/07/19 00:14:53;;;;;;;20.92;12.48;;;;;;;26.19;65.21;98934.44;5037719;28;20029;-74
2021/07/19 00:17:20;;;;;;;19.48;12.73;;;;;;;26.24;65.20;98934.38;5060103;28;20043;-74
2021/07/19 00:19:48;;;;;;;17.90;13.02;;;;;;;26.19;66.06;98934.44;5056525;28;20112;-74
2021/07/19 00:22:14;;;;;;;22.50;12.48;;;;;;;26.23;66.44;98930.06;5061433;28;20134;-74
2021/07/19 00:24:40;;;;;;;18.85;12.25;;;;;;;26.23;66.69;98929.25;5059299;28;20033;-74
2021/07/19 00:27:06;;;;;;;20.67;12.75;;;;;;;26.30;66.07;98927.81;5030381;28;20066;-74
2021/07/19 00:29:31;;;;;;;19.58;12.25;;;;;;;26.22;66.01;98922.19;5036399;28;20029;-74
2021/07/19 00:31:57;;;;;;;19.92;11.77;;;;;;;26.35;64.49;98922.38;5058340;28;20035;-74
2021/07/19 00:34:22;;;;;;;24.42;12.00;;;;;;;26.22;65.21;98911.34;5060229;28;20045;-74
2021/07/19 00:36:50;;;;;;;20.80;12.15;;;;;;;26.19;65.01;98920.06;5058953;28;20318;-74
2021/07/19 00:39:16;;;;;;;19.35;12.23;;;;;;;26.10;64.67;98914.44;5063369;28;20032;-74
2021/07/19 00:41:41;;;;;;;21.00;12.85;;;;;;;26.13;66.04;98924.72;5060891;28;20362;-74
2021/07/19 00:44:07;;;;;;;18.92;12.45;;;;;;;26.17;66.59;98927.66;5060438;28;20037;-74
2021/07/19 00:46:33;;;;;;;19.50;11.23;;;;;;;26.17;65.38;98931.19;5062488;28;20029;-74
2021/07/19 00:48:59;;;;;;;18.25;12.55;;;;;;;26.12;66.26;98919.56;5061090;28;20055;-74
2021/07/19 00:51:26;;;;;;;18.25;12.25;;;;;;;26.20;66.30;98925.19;5061323;28;20036;-74
2021/07/19 00:53:51;;;;;;;19.10;12.90;;;;;;;26.18;66.70;98915.72;5036419;28;20025;-75
2021/07/19 00:56:18;;;;;;;20.65;13.18;;;;;;;26.26;66.41;98920.53;5059374;28;20366;-74
2021/07/19 00:58:47;;;;;;;20.38;12.25;;;;;;;26.09;64.71;98908.19;5027938;28;20021;-74
2021/07/19 01:01:14;;;;;;;23.85;13.23;;;;;;;26.06;65.18;98910.66;5060027;28;20074;-74
2021/07/19 01:03:41;;;;;;;21.48;12.43;;;;;;;25.94;65.71;98905.56;5058291;28;20036;-74
2021/07/19 01:06:07;;;;;;;19.63;12.18;;;;;;;25.95;65.14;98906.38;5056480;28;20036;-74
2021/07/19 01:08:34;;;;;;;19.33;12.80;;;;;;;25.96;65.23;98902.56;5053779;28;20060;-74
2021/07/19 01:11:00;;;;;;;21.98;12.50;;;;;;;25.80;65.75;98899.16;5039680;28;20388;-74
2021/07/19 01:13:26;;;;;;;18.38;12.30;;;;;;;25.86;68.29;98903.47;5057974;28;20047;-74
2021/07/19 01:15:51;;;;;;;16.38;13.50;;;;;;;25.90;68.44;98911.84;5060496;28;20037;-74
2021/07/19 01:18:17;;;;;;;19.42;13.50;;;;;;;25.98;68.18;98920.19;5060819;28;20203;-74
2021/07/19 01:21:14;;;;;;;18.75;14.02;;;;;;;26.06;67.95;98918.81;5059421;28;20037;-74
2021/07/19 01:24:06;;;;;;;18.90;13.20;;;;;;;26.05;68.11;98918.00;5053371;28;20449;-74
2021/07/19 01:26:39;;;;;;;18.83;13.63;;;;;;;26.02;68.09;98925.88;5042507;28;20025;-74
2021/07/19 01:29:06;;;;;;;20.53;14.00;;;;;;;26.04;67.68;98927.22;5061351;28;20317;-74
2021/07/19 01:31:36;;;;;;;21.13;13.77;;;;;;;25.87;68.33;98924.06;5059959;28;20032;-74
2021/07/19 01:34:09;;;;;;;18.95;13.23;;;;;;;25.94;68.58;98923.75;5042639;28;20314;-74
2021/07/19 01:36:39;;;;;;;17.95;13.45;;;;;;;25.74;68.91;98919.28;5059675;28;20040;-74
2021/07/19 01:39:06;;;;;;;20.67;14.32;;;;;;;26.02;68.35;98934.03;5041326;28;20086;-74
2021/07/19 01:41:33;;;;;;;19.05;14.07;;;;;;;26.00;68.13;98938.88;5056569;28;20108;-74
2021/07/19 01:44:00;;;;;;;22.45;14.10;;;;;;;26.02;68.45;98931.31;5058613;28;20044;-74
2021/07/19 01:46:27;;;;;;;21.88;13.70;;;;;;;25.89;69.04;98930.00;5058106;28;20334;-74
2021/07/19 01:48:55;;;;;;;21.17;13.73;;;;;;;25.93;68.69;98930.25;5033346;28;20035;-74
2021/07/19 01:51:21;;;;;;;23.65;14.43;;;;;;;25.86;67.71;98936.00;5058743;28;20374;-74
2021/07/19 01:53:47;;;;;;;21.23;13.30;;;;;;;25.82;67.14;98937.66;5059838;28;20310;-74
2021/07/19 01:56:14;;;;;;;16.45;13.35;;;;;;;25.77;66.84;98945.81;5058926;28;20071;-74
2021/07/19 01:58:40;;;;;;;17.20;12.88;;;;;;;25.61;66.62;98938.84;5058099;28;20044;-74
2021/07/19 02:01:06;;;;;;;17.50;11.40;;;;;;;25.49;65.75;98944.59;5058305;28;20037;-75
2021/07/19 02:03:32;;;;;;;20.40;12.48;;;;;;;25.45;65.38;98938.13;5060548;28;20091;-74
2021/07/19 02:05:59;;;;;;;15.70;12.40;;;;;;;25.28;67.02;98933.03;5060422;28;20092;-74
2021/07/19 02:08:25;;;;;;;15.80;11.85;;;;;;;25.28;66.59;98943.88;5055040;28;20041;-74
2021/07/19 02:10:53;;;;;;;18.80;13.20;;;;;;;25.24;67.29;98942.00;5041891;28;20087;-75
2021/07/19 02:13:20;;;;;;;21.25;13.50;;;;;;;25.38;68.07;98940.31;5031840;28;20040;-74
2021/07/19 02:15:49;;;;;;;25.63;14.15;;;;;;;25.39;67.42;98947.34;5058707;28;20025;-74
2021/07/19 02:18:15;;;;;;;22.60;14.38;;;;;;;25.31;68.75;98943.31;5057411;28;20049;-74
2021/07/19 02:20:43;;;;;;;24.45;15.98;;;;;;;25.38;69.75;98951.97;5042941;28;20067;-74
2021/07/19 02:23:10;;;;;;;25.33;17.23;;;;;;;25.48;70.15;98942.16;5041457;28;20067;-74
2021/07/19 02:25:36;;;;;;;23.77;15.80;;;;;;;25.63;68.60;98947.50;5052829;28;20275;-74
2021/07/19 02:28:03;;;;;;;20.73;16.65;;;;;;;25.32;69.90;98931.41;5061634;28;20064;-74
2021/07/19 02:30:30;;;;;;;26.17;16.30;;;;;;;25.46;70.09;98954.09;5062343;28;20068;-74
2021/07/19 02:32:57;;;;;;;23.65;17.35;;;;;;;25.43;70.07;98946.53;5062473;28;20048;-74
2021/07/19 02:35:24;;;;;;;25.35;17.65;;;;;;;25.48;69.99;98955.72;5063137;28;20036;-74
2021/07/19 02:37:52;;;;;;;25.70;17.05;;;;;;;25.56;69.09;98949.72;5063834;28;20071;-74
2021/07/19 02:40:20;;;;;;;25.85;15.55;;;;;;;25.58;67.68;98945.63;5056499;28;20022;-74
2021/07/19 02:42:50;;;;;;;23.98;15.52;;;;;;;25.54;67.61;98950.00;5062738;28;20033;-74
2021/07/19 02:45:17;;;;;;;27.42;15.32;;;;;;;25.63;67.04;98961.06;5043272;28;22067;-75
2021/07/19 02:47:48;;;;;;;22.95;17.40;;;;;;;25.49;69.33;98958.16;5061992;28;20056;-74
2021/07/19 02:50:16;;;;;;;26.65;16.98;;;;;;;25.58;68.85;98961.09;5065354;28;20044;-74
2021/07/19 02:52:43;;;;;;;22.05;16.23;;;;;;;25.70;66.25;98967.81;5062505;28;20596;-74
2021/07/19 02:55:11;;;;;;;28.27;16.58;;;;;;;25.63;67.04;98961.88;5030803;28;20028;-74
2021/07/19 02:57:38;;;;;;;23.80;15.43;;;;;;;25.55;66.85;98967.88;5064014;28;20067;-74
2021/07/19 03:00:08;;;;;;;24.63;15.95;;;;;;;25.49;68.01;98958.16;5044726;28;20071;-74
2021/07/19 03:02:38;;;;;;;30.95;16.50;;;;;;;25.49;68.45;98965.47;5044630;28;20033;-74
2021/07/19 03:05:04;;;;;;;19.48;14.52;;;;;;;25.52;67.68;98965.72;5060615;28;20044;-74
2021/07/19 03:07:31;;;;;;;22.65;15.98;;;;;;;25.58;67.41;98961.09;5062172;28;20053;-74
2021/07/19 03:09:59;;;;;;;22.00;16.08;;;;;;;25.45;65.78;98968.72;5061143;28;20040;-74
2021/07/19 03:12:27;;;;;;;22.65;16.92;;;;;;;25.27;67.73;98955.00;5061513;28;20346;-74
2021/07/19 03:14:54;;;;;;;26.38;17.02;;;;;;;25.22;67.99;98966.66;5055914;28;20024;-74
2021/07/19 03:17:21;;;;;;;46.30;18.13;;;;;;;25.24;67.81;98967.19;5063254;28;20044;-74
2021/07/19 03:19:47;;;;;;;31.73;19.08;;;;;;;25.15;69.09;98971.56;5044614;28;20017;-74
2021/07/19 03:22:15;;;;;;;46.40;19.88;;;;;;;25.10;69.62;98972.38;5060595;28;20226;-74
2021/07/19 03:24:42;;;;;;;37.78;20.25;;;;;;;25.18;69.77;98976.44;5063648;28;20025;-74
2021/07/19 03:27:07;;;;;;;37.05;19.75;;;;;;;25.20;69.67;98968.03;5061013;28;20393;-74
2021/07/19 03:29:35;;;;;;;32.17;20.13;;;;;;;25.37;69.16;98979.34;5044216;28;20099;-74
2021/07/19 03:32:02;;;;;;;30.58;19.30;;;;;;;25.42;68.64;98979.31;5059797;28;20053;-74
2021/07/19 03:34:28;;;;;;;33.53;19.88;;;;;;;25.33;68.27;98981.78;5042189;28;20025;-74
2021/07/19 03:36:55;;;;;;;29.02;19.33;;;;;;;24.98;69.50;98976.50;5043205;28;20767;-74
2021/07/19 03:39:21;;;;;;;30.20;20.88;;;;;;;24.99;69.93;98980.81;5061054;28;20072;-74
2021/07/19 03:41:51;;;;;;;31.48;19.02;;;;;;;24.92;70.39;98997.28;5062266;28;20025;-74
2021/07/19 03:44:17;;;;;;;29.90;21.55;;;;;;;24.88;70.81;98993.50;5037332;28;20033;-74
2021/07/19 03:46:44;;;;;;;27.38;19.98;;;;;;;24.98;70.74;99003.56;5062365;28;20314;-74
2021/07/19 03:49:14;;;;;;;29.35;20.52;;;;;;;24.97;70.58;99001.88;5062637;28;20202;-74
2021/07/19 03:51:43;;;;;;;30.13;21.13;;;;;;;25.08;70.13;99000.84;5061738;28;20039;-74
2021/07/19 03:54:08;;;;;;;26.67;19.85;;;;;;;25.20;69.77;99000.53;5043240;28;20028;-74
2021/07/19 03:56:35;;;;;;;30.92;19.13;;;;;;;25.22;69.71;98993.75;5061989;28;20036;-74
2021/07/19 03:59:02;;;;;;;29.30;21.00;;;;;;;25.19;69.91;99007.03;5062244;28;20048;-75
2021/07/19 04:01:29;;;;;;;28.70;19.42;;;;;;;25.17;70.29;99007.31;5059280;28;20032;-74
2021/07/19 04:04:03;;;;;;;34.20;19.13;;;;;;;25.17;70.25;99007.31;5059574;28;20024;-74
2021/07/19 04:06:30;;;;;;;28.45;20.45;;;;;;;25.20;69.93;99016.78;5059853;28;20235;-74
2021/07/19 04:08:55;;;;;;;29.80;19.88;;;;;;;25.31;69.78;99016.47;5042684;28;20221;-74
2021/07/19 04:11:22;;;;;;;30.52;19.90;;;;;;;25.32;69.67;99012.69;5059962;28;20032;-74
2021/07/19 04:13:48;;;;;;;38.95;21.90;;;;;;;25.30;70.56;99014.88;5060043;28;20029;-73
2021/07/19 04:16:16;;;;;;;30.50;19.80;;;;;;;25.32;70.54;99023.53;5060997;28;20079;-74
2021/07/19 04:18:41;;;;;;;27.80;20.23;;;;;;;25.32;70.83;99018.09;5058746;28;20322;-75
2021/07/19 04:21:07;;;;;;;27.58;20.13;;;;;;;25.34;70.74;99020.53;5059948;28;20083;-74
2021/07/19 04:23:34;;;;;;;27.70;19.83;;;;;;;25.51;70.69;99022.94;5060939;28;20112;-74
2021/07/19 04:26:00;;;;;;;28.95;20.55;;;;;;;25.39;70.70;99024.06;5062865;28;20064;-74
2021/07/19 04:28:25;;;;;;;27.05;21.23;;;;;;;25.20;71.01;99014.91;5058566;28;20440;-74
2021/07/19 04:30:51;;;;;;;30.15;21.00;;;;;;;25.33;71.06;99029.75;5061179;28;20357;-74
2021/07/19 04:33:22;;;;;;;30.13;21.30;;;;;;;25.08;72.63;99028.75;5050636;28;20071;-74
2021/07/19 04:35:49;;;;;;;33.22;22.42;;;;;;;25.04;73.21;99027.66;5060702;28;20044;-74
2021/07/19 04:38:16;;;;;;;33.13;22.75;;;;;;;25.05;72.76;99028.47;5059437;28;20283;-74
2021/07/19 04:40:45;;;;;;;33.80;22.98;;;;;;;25.03;73.30;99038.78;5059436;28;20258;-74
2021/07/19 04:43:11;;;;;;;35.58;22.20;;;;;;;25.05;73.28;99033.91;5060446;28;20044;-74
2021/07/19 04:45:36;;;;;;;32.42;22.00;;;;;;;25.15;73.60;99036.59;5060567;28;20041;-74
2021/07/19 04:48:02;;;;;;;32.20;21.83;;;;;;;25.12;73.40;99034.41;5061428;28;20064;-74
2021/07/19 04:50:28;;;;;;;39.75;22.02;;;;;;;25.18;73.12;99029.81;5059967;28;20071;-75
2021/07/19 04:52:53;;;;;;;35.92;22.52;;;;;;;25.38;72.02;99038.69;5059488;28;20032;-74
2021/07/19 04:55:22;;;;;;;40.35;22.58;;;;;;;25.23;72.08;99030.59;5044344;28;20039;-74
2021/07/19 04:57:53;;;;;;;37.63;23.05;;;;;;;25.40;72.72;99043.84;5042025;28;20259;-74
2021/07/19 05:00:19;;;;;;;34.60;21.13;;;;;;;25.73;71.40;99050.50;5059296;28;20059;-74
2021/07/19 05:02:48;;;;;;;33.67;21.20;;;;;;;25.91;70.56;99049.06;5061041;28;20361;-74
2021/07/19 05:05:20;;;;;;;40.78;21.05;;;;;;;26.01;69.90;99047.16;5057121;28;20272;-74
2021/07/19 05:07:46;;;;;;;27.98;21.08;;;;;;;26.07;69.99;99051.47;5061711;28;20230;-74
2021/07/19 05:10:14;;;;;;;29.13;19.50;;;;;;;26.35;68.68;99057.28;5060587;28;20033;-74
2021/07/19 05:12:43;;;;;;;37.67;21.50;;;;;;;26.19;69.13;99059.25;5035476;28;20036;-74
2021/07/19 05:15:14;;;;;;;23.38;18.60;;;;;;;26.30;68.68;99058.09;5059175;28;20029;-74
2021/07/19 05:17:41;;;;;;;28.48;19.95;;;;;;;26.54;67.40;99060.13;5052213;28;20028;-74
2021/07/19 05:20:18;;;;;;;30.23;19.85;;;;;;;26.51;67.31;99066.13;5062051;28;20040;-74
2021/07/19 05:22:52;;;;;;;26.50;18.73;;;;;;;26.68;66.80;99056.50;5060331;28;20323;-74
2021/07/19 05:25:30;;;;;;;;;;;;;;;26.80;65.69;99060.75;5042510;28;20040;-75
2021/07/19 05:27:58;;;;;;;23.13;15.88;;;;;;;26.68;65.61;99070.06;5043052;28;19916;-75
2021/07/19 05:30:27;;;;;;;21.33;16.05;;;;;;;26.76;65.72;99067.84;5061754;28;20625;-74
2021/07/19 05:32:53;;;;;;;25.33;15.95;;;;;;;27.01;65.01;99064.94;5031465;28;20188;-74
2021/07/19 05:35:19;;;;;;;27.77;16.05;;;;;;;27.13;64.08;99059.13;5056312;28;20035;-74
2021/07/19 05:37:46;;;;;;;27.08;16.33;;;;;;;27.15;64.47;99065.91;5063011;28;20068;-74
2021/07/19 05:40:13;;;;;;;33.92;17.83;;;;;;;27.16;64.67;99072.97;5061423;28;20033;-74
2021/07/19 05:42:39;;;;;;;24.20;15.48;;;;;;;27.45;63.85;99055.81;5056418;28;20033;-74
2021/07/19 05:45:06;;;;;;;32.92;16.60;;;;;;;27.66;63.28;99068.09;5060566;28;20559;-74
2021/07/19 05:47:33;;;;;;;32.47;17.27;;;;;;;27.80;62.96;99058.13;5059932;28;20059;-74
2021/07/19 05:49:59;;;;;;;30.52;17.30;;;;;;;28.04;61.89;99044.47;5061757;28;20032;-75
2021/07/19 05:52:24;;;;;;;28.67;16.02;;;;;;;28.26;61.02;99068.44;5038565;28;20283;-74
2021/07/19 05:54:50;;;;;;;29.42;15.35;;;;;;;28.38;59.77;99073.44;5031257;28;20024;-75
2021/07/19 05:57:15;;;;;;;25.00;15.02;;;;;;;28.13;60.12;99067.25;5060356;28;20036;-75
2021/07/19 05:59:41;;;;;;;32.78;17.52;;;;;;;28.20;60.52;99055.97;5044104;28;20035;-74
2021/07/19 06:02:06;;;;;;;27.05;16.88;;;;;;;28.04;61.32;99062.72;5074205;28;20036;-74
2021/07/19 06:04:32;;;;;;;25.92;15.52;;;;;;;27.88;61.50;99053.94;5064207;28;20041;-75
2021/07/19 06:06:57;;;;;;;21.83;16.25;;;;;;;28.34;60.53;99065.06;5047602;28;20067;-73
2021/07/19 06:09:23;;;;;;;24.65;15.48;;;;;;;28.20;60.14;99066.88;5076460;28;20109;-75
2021/07/19 06:11:48;;;;;;;36.85;16.85;;;;;;;27.85;61.06;99073.56;5051114;28;20048;-74
2021/07/19 06:14:14;;;;;;;21.95;14.40;;;;;;;27.62;60.43;99067.88;5047438;28;20223;-73
2021/07/19 06:16:39;;;;;;;23.80;13.35;;;;;;;27.86;59.20;99069.75;5065696;28;20040;-74
2021/07/19 06:19:05;;;;;;;25.60;13.98;;;;;;;28.29;59.48;99065.94;5047543;28;20100;-73
2021/07/19 06:21:30;;;;;;;18.77;11.52;;;;;;;27.99;56.68;99045.34;5052512;28;20102;-73
2021/07/19 06:23:56;;;;;;;22.50;12.18;;;;;;;28.49;56.50;99062.09;5044297;28;20102;-73
2021/07/19 06:26:21;;;;;;;20.42;11.18;;;;;;;28.84;55.55;99065.38;5045548;28;20208;-74
2021/07/19 06:28:47;;;;;;;26.40;11.98;;;;;;;28.71;56.84;99066.13;5045179;28;20033;-74
2021/07/19 06:31:13;;;;;;;22.23;12.98;;;;;;;28.98;56.01;99057.25;5046202;28;20041;-74
2021/07/19 06:33:38;;;;;;;37.72;14.07;;;;;;;29.04;56.56;99058.78;5044581;28;20350;-74
2021/07/19 06:36:04;;;;;;;25.23;14.25;;;;;;;28.99;56.73;99061.59;5046856;28;20037;-74
2021/07/19 06:38:29;;;;;;;24.60;13.23;;;;;;;29.05;56.21;99061.19;5044334;28;20227;-74
2021/07/19 06:40:55;;;;;;;23.10;13.18;;;;;;;28.56;57.42;99056.28;5045420;28;20250;-74
2021/07/19 06:43:21;;;;;;;17.48;12.45;;;;;;;29.29;55.24;99055.63;5046907;28;20104;-74
2021/07/19 06:45:47;;;;;;;21.02;12.75;;;;;;;29.39;54.70;99058.16;5052232;28;20034;-74
2021/07/19 06:48:13;;;;;;;18.08;12.55;;;;;;;28.64;57.58;99066.50;5045068;28;20201;-74
2021/07/19 06:50:39;;;;;;;18.58;12.68;;;;;;;28.75;57.43;99062.50;5045503;28;20096;-73
2021/07/19 06:53:04;;;;;;;24.45;13.02;;;;;;;29.10;56.85;99057.56;5051561;28;20051;-73
2021/07/19 06:55:30;;;;;;;21.85;15.10;;;;;;;29.20;57.68;99054.69;5060135;28;20063;-73
2021/07/19 06:57:55;;;;;;;30.52;13.18;;;;;;;29.43;55.87;99056.47;5084984;28;20043;-73
2021/07/19 07:00:21;;;;;;;30.98;15.20;;;;;;;29.67;55.46;99044.53;5050026;28;20037;-73
2021/07/19 07:02:46;;;;;;;21.70;13.18;;;;;;;29.66;55.08;99051.09;5048744;28;20042;-74
2021/07/19 07:05:12;;;;;;;21.90;11.68;;;;;;;29.83;53.37;99054.81;5029004;28;20045;-74
2021/07/19 07:07:37;;;;;;;20.27;12.93;;;;;;;29.83;53.62;99040.38;5029954;28;20041;-74
2021/07/19 07:10:05;;;;;;;14.77;11.35;;;;;;;29.74;53.56;99053.13;5043759;28;20083;-74
2021/07/19 07:12:30;;;;;;;18.70;11.85;;;;;;;30.20;52.24;99044.78;5042948;28;20045;-74
2021/07/19 07:14:56;;;;;;;18.55;11.18;;;;;;;30.71;50.83;99051.81;5041101;28;20021;-74
2021/07/19 07:17:21;;;;;;;13.93;11.35;;;;;;;30.97;50.18;99044.56;5033868;28;20051;-74
2021/07/19 07:19:46;;;;;;;16.23;11.73;;;;;;;30.65;50.68;99050.31;5051243;28;20221;-73
2021/07/19 07:22:12;;;;;;;16.13;11.48;;;;;;;30.82;50.49;99042.22;5026853;28;20227;-74
2021/07/19 07:24:41;;;;;;;18.77;12.05;;;;;;;31.85;48.24;99041.91;5043670;28;20243;-74
2021/07/19 07:27:11;;;;;;;16.73;11.45;;;;;;;32.09;46.86;99049.69;5045921;28;20327;-74
2021/07/19 07:29:37;;;;;;;22.73;11.60;;;;;;;32.73;44.73;99038.91;5043190;28;20029;-74
2021/07/19 07:32:03;;;;;;;15.20;11.15;;;;;;;32.43;46.04;99039.91;5043451;28;20040;-74
2021/07/19 07:34:29;;;;;;;15.18;10.10;;;;;;;32.06;44.97;99036.63;5043166;28;20029;-74
2021/07/19 07:36:54;;;;;;;14.18;9.90;;;;;;;31.63;46.21;99042.81;5043348;28;20250;-74
2021/07/19 07:39:20;;;;;;;17.67;10.20;;;;;;;31.85;45.26;99030.97;5042893;28;20033;-73
2021/07/19 07:41:45;;;;;;;25.35;11.57;;;;;;;32.26;45.58;99035.25;5051455;28;20040;-73
2021/07/19 07:44:11;;;;;;;15.10;9.65;;;;;;;31.99;45.20;99022.63;5035499;28;20199;-73
2021/07/19 07:46:37;;;;;;;23.48;10.30;;;;;;;32.06;45.10;99033.91;5048542;28;20331;-74
2021/07/19 07:49:03;;;;;;;18.70;10.43;;;;;;;32.65;43.88;99026.03;5052271;28;20349;-74
2021/07/19 07:51:29;;;;;;;17.85;10.30;;;;;;;32.79;43.52;99039.59;5046516;28;20079;-74
2021/07/19 07:53:54;;;;;;;19.02;11.52;;;;;;;32.43;44.41;99024.28;5031029;28;20021;-74
2021/07/19 07:56:20;;;;;;;15.07;9.85;;;;;;;31.98;45.54;99030.03;5046580;28;20043;-73
2021/07/19 07:58:45;;;;;;;13.98;10.18;;;;;;;32.95;43.11;99024.22;5047001;28;20021;-74
2021/07/19 08:01:11;;;;;;;21.33;11.02;;;;;;;33.34;42.21;99028.66;5047602;28;20092;-74
2021/07/19 08:03:36;;;;;;;17.98;9.57;;;;;;;34.10;40.29;99019.50;5047244;28;20032;-72
2021/07/19 08:06:02;;;;;;;18.20;9.77;;;;;;;34.39;39.67;99029.66;5049876;28;20020;-72
2021/07/19 08:08:27;;;;;;;16.38;9.75;;;;;;;33.70;41.13;99019.91;5050124;28;20075;-72
2021/07/19 08:10:53;;;;;;;13.65;10.15;;;;;;;33.57;42.17;99010.78;5047125;28;20040;-72
2021/07/19 08:13:18;;;;;;;18.52;10.35;;;;;;;33.53;41.63;99015.31;5049460;28;20082;-72
2021/07/19 08:15:47;;;;;;;17.42;9.90;;;;;;;33.19;42.57;99008.00;5046949;28;20052;-72
2021/07/19 08:18:13;;;;;;;15.88;10.50;;;;;;;33.21;42.91;99002.97;5028615;28;20524;-72
2021/07/19 08:20:39;;;;;;;19.10;9.88;;;;;;;33.84;41.12;99005.94;5037229;28;20039;-72
2021/07/19 08:23:04;;;;;;;15.20;9.95;;;;;;;34.24;39.85;98989.78;5046779;28;20030;-72
2021/07/19 08:25:30;;;;;;;16.55;10.10;;;;;;;33.64;41.46;98975.38;5046957;28;20036;-72
2021/07/19 08:27:55;;;;;;;17.75;10.85;;;;;;;32.78;42.72;98981.19;5048217;28;20355;-73
2021/07/19 08:30:21;;;;;;;15.43;10.02;;;;;;;32.42;44.44;98997.22;5044791;28;20037;-73
2021/07/19 08:32:47;;;;;;;16.15;10.25;;;;;;;32.27;44.55;98999.31;5047967;28;20040;-74
2021/07/19 08:35:13;;;;;;;16.13;9.93;;;;;;;32.73;44.27;98986.84;5037070;28;20036;-74
2021/07/19 08:37:40;;;;;;;17.42;10.10;;;;;;;32.95;43.82;98994.06;5045783;28;20029;-73
2021/07/19 08:40:07;;;;;;;20.73;10.05;;;;;;;33.40;42.13;98994.41;5050663;28;20052;-73
2021/07/19 08:42:34;;;;;;;12.02;10.18;;;;;;;33.17;41.82;98979.28;5044151;28;20156;-74
2021/07/19 08:45:01;;;;;;;19.50;9.10;;;;;;;33.44;41.30;98986.31;5043008;28;20227;-74
2021/07/19 08:47:27;;;;;;;17.35;10.30;;;;;;;33.21;41.93;98983.78;5049295;28;20068;-74
2021/07/19 08:49:52;;;;;;;16.95;9.35;;;;;;;34.01;39.54;98981.09;5033872;28;20021;-74
2021/07/19 08:52:21;;;;;;;20.23;10.40;;;;;;;34.51;39.38;98994.78;5050587;28;20720;-72
2021/07/19 08:54:47;;;;;;;17.00;10.02;;;;;;;33.87;40.60;98977.81;5049730;28;20032;-72
2021/07/19 08:57:15;;;;;;;15.02;10.50;;;;;;;33.80;40.50;98981.06;5046799;28;20056;-73
2021/07/19 08:59:41;;;;;;;15.57;10.02;;;;;;;33.48;40.61;98965.28;5045672;28;20022;-74
2021/07/19 09:02:10;;;;;;;17.50;9.98;;;;;;;32.93;42.13;98980.66;5047791;28;20087;-74
2021/07/19 09:04:39;;;;;;;14.98;9.18;;;;;;;32.42;44.40;98958.84;5029829;28;20227;-74
2021/07/19 09:07:05;;;;;;;17.95;9.30;;;;;;;33.15;42.58;98974.13;5045574;28;20025;-74
2021/07/19 09:09:34;;;;;;;62.20;12.10;;;;;;;33.44;42.46;98967.91;5047229;28;20106;-73
2021/07/19 09:12:03;;;;;;;16.45;10.18;;;;;;;33.10;42.47;98977.06;5049254;28;20278;-75
2021/07/19 09:14:30;;;;;;;14.93;9.18;;;;;;;32.87;41.88;98970.22;5048951;28;20033;-73
2021/07/19 09:16:56;;;;;;;162.75;18.88;;;;;;;32.89;42.51;98967.94;5029010;28;20287;-73
2021/07/19 09:19:23;;;;;;;14.48;9.80;;;;;;;32.64;43.88;98973.16;5047164;28;20103;-73
2021/07/19 09:21:55;;;;;;;14.23;9.15;;;;;;;32.32;43.19;98971.75;5048881;28;20037;-74
2021/07/19 09:24:22;;;;;;;15.65;9.52;;;;;;;32.65;43.22;98955.56;5027399;28;20323;-75
2021/07/19 09:26:50;;;;;;;34.53;10.65;;;;;;;33.08;41.42;98957.38;5036227;28;20028;-73
2021/07/19 09:29:19;;;;;;;17.73;9.35;;;;;;;33.22;40.49;98963.44;5047583;28;20028;-74
2021/07/19 09:31:50;;;;;;;18.23;9.98;;;;;;;33.12;40.25;98957.53;5045772;28;20347;-73
2021/07/19 09:34:18;;;;;;;15.50;9.38;;;;;;;33.08;40.46;98953.84;5045116;28;20044;-74
2021/07/19 09:36:58;;;;;;;15.93;9.43;;;;;;;32.90;40.68;98961.31;5047674;28;20041;-73
2021/07/19 09:39:25;;;;;;;17.23;9.38;;;;;;;32.71;40.03;98947.97;5048510;28;20326;-73
2021/07/19 09:41:51;;;;;;;28.17;10.48;;;;;;;32.67;40.59;98949.75;5049694;28;20274;-73
2021/07/19 09:44:23;;;;;;;22.35;10.38;;;;;;;32.46;41.60;98946.09;5047236;28;20057;-74
2021/07/19 09:46:48;;;;;;;16.38;10.07;;;;;;;32.09;41.68;98956.56;5047383;28;20130;-74
2021/07/19 09:49:14;;;;;;;22.13;10.82;;;;;;;32.22;42.74;98950.13;5046015;28;20025;-73
2021/07/19 09:51:41;;;;;;;23.35;12.85;;;;;;;32.22;41.24;98944.63;5045738;28;20045;-74
2021/07/19 09:54:13;;;;;;;18.88;11.13;;;;;;;32.22;40.93;98941.91;5038869;28;20024;-74
2021/07/19 09:56:40;;;;;;;19.40;11.27;;;;;;;32.35;41.22;98937.44;5046713;28;20057;-73
2021/07/19 09:59:11;;;;;;;15.40;11.40;;;;;;;31.97;43.14;98940.78;5044992;28;20025;-73
2021/07/19 10:01:41;;;;;;;16.25;10.82;;;;;;;32.03;41.48;98935.97;5044934;28;20246;-73
2021/07/19 10:04:16;;;;;;;17.52;11.43;;;;;;;32.08;40.85;98927.56;5049585;28;20025;-73
2021/07/19 10:06:44;;;;;;;17.95;11.05;;;;;;;32.28;41.12;98943.41;5036351;28;20208;-73
2021/07/19 10:09:12;;;;;;;13.95;11.23;;;;;;;32.42;43.77;98931.44;5045108;28;20033;-74
2021/07/19 10:11:42;;;;;;;17.00;10.35;;;;;;;32.56;41.13;98932.88;5026640;28;20037;-69
2021/07/19 10:14:08;;;;;;;14.80;10.18;;;;;;;32.42;42.23;98918.56;5045827;28;20033;-74
2021/07/19 10:16:35;;;;;;;15.20;9.93;;;;;;;32.44;41.24;98913.56;5044972;28;20117;-73
2021/07/19 10:19:02;;;;;;;19.08;10.63;;;;;;;32.41;41.13;98916.94;5040987;28;20036;-72
2021/07/19 10:21:29;;;;;;;15.45;10.35;;;;;;;32.41;41.16;98919.69;5044818;28;20033;-74
2021/07/19 10:23:58;;;;;;;15.93;10.35;;;;;;;31.99;40.86;98929.50;5031772;28;20078;-69
2021/07/19 10:26:25;;;;;;;16.33;11.07;;;;;;;32.31;39.71;98917.28;5042599;28;20357;-75
2021/07/19 10:28:51;;;;;;;17.75;10.27;;;;;;;32.80;40.27;98909.59;5026172;28;20414;-73
2021/07/19 10:31:17;;;;;;;16.70;10.23;;;;;;;32.46;40.05;98903.06;5043706;28;20055;-74
2021/07/19 10:33:43;;;;;;;16.25;10.13;;;;;;;32.77;41.71;98915.69;5042525;28;20185;-74
2021/07/19 10:36:11;;;;;;;17.05;9.98;;;;;;;32.60;39.93;98902.88;5047262;28;20143;-74
2021/07/19 10:38:40;;;;;;;14.63;9.82;;;;;;;32.69;40.95;98915.41;5026867;28;20037;-72
2021/07/19 10:41:06;;;;;;;21.38;9.52;;;;;;;32.44;40.58;98901.78;5046686;28;20040;-72
2021/07/19 10:43:32;;;;;;;13.50;10.57;;;;;;;32.81;40.67;98909.25;5046227;28;20060;-71
2021/07/19 10:46:09;;;;;;;14.77;10.32;;;;;;;32.65;39.91;98895.28;5044547;28;20037;-71
2021/07/19 10:48:35;;;;;;;23.08;10.70;;;;;;;32.50;39.41;98901.28;5047932;28;20255;-71
2021/07/19 10:51:21;;;;;;;24.50;10.20;;;;;;;32.84;39.56;98905.88;5049286;28;20545;-74
2021/07/19 10:53:47;;;;;;;15.75;11.90;;;;;;;32.51;40.39;98891.13;5043294;28;20260;-74
2021/07/19 10:56:14;;;;;;;15.32;10.27;;;;;;;32.76;39.78;98889.41;5043644;28;20033;-74
2021/07/19 10:58:43;;;;;;;13.75;10.40;;;;;;;32.61;39.53;98891.56;5042686;28;20033;-74
2021/07/19 11:01:26;;;;;;;12.55;9.43;;;;;;;32.41;38.77;98886.00;5041974;28;20100;-73
2021/07/19 11:03:53;;;;;;;19.38;10.27;;;;;;;32.52;39.48;98879.84;5041688;28;20033;-72
2021/07/19 11:06:32;;;;;;;16.00;10.38;;;;;;;32.94;39.00;98871.78;5041956;28;20251;-71
2021/07/19 11:08:58;;;;;;;13.63;9.50;;;;;;;32.91;39.40;98886.16;5041739;28;20041;-71
2021/07/19 11:11:29;;;;;;;19.80;10.15;;;;;;;32.88;38.94;98878.59;5042669;28;20043;-71
2021/07/19 11:14:01;;;;;;;14.77;9.45;;;;;;;32.62;40.19;98870.44;5042158;28;20204;-74
2021/07/19 11:16:37;;;;;;;16.60;10.40;;;;;;;32.84;38.99;98861.19;5043322;28;20057;-74
2021/07/19 11:19:04;;;;;;;17.42;10.82;;;;;;;32.87;38.30;98861.34;5040420;28;20096;-74